sensor_id;sensor_type;location;lat;lon;timestamp;temperature;humidity
33739;DHT22;20063;51.730;11.110;2022-08-03T06:17:11;24.20;67.40
33739;DHT22;20063;51.730;11.110;2022-08-03T06:19:37;24.20;67.50
33739;DHT22;20063;51.730;11.110;2022-08-03T06:25:11;24.40;68.00
33739;DHT22;20063;51.730;11.110;2022-08-03T06:27:37;24.50;67.30
33739;DHT22;20063;51.730;11.110;2022-08-03T06:30:23;24.60;66.00
33739;DHT22;20063;51.730;11.110;2022-08-03T06:32:48;24.80;66.60
33739;DHT22;20063;51.730;11.110;2022-08-03T06:35:20;24.80;66.70
33739;DHT22;20063;51.730;11.110;2022-08-03T06:37:50;24.90;65.90
33739;DHT22;20063;51.730;11.110;2022-08-03T06:40:18;25.00;64.70
33739;DHT22;20063;51.730;11.110;2022-08-03T06:46:05;25.10;65.10
33739;DHT22;20063;51.730;11.110;2022-08-03T06:48:42;25.10;64.40
33739;DHT22;20063;51.730;11.110;2022-08-03T06:51:07;25.20;64.60
33739;DHT22;20063;51.730;11.110;2022-08-03T06:53:33;25.30;64.70
33739;DHT22;20063;51.730;11.110;2022-08-03T06:56:12;25.30;66.90
33739;DHT22;20063;51.730;11.110;2022-08-03T06:58:38;25.30;65.90
33739;DHT22;20063;51.730;11.110;2022-08-03T07:01:03;25.30;65.90
33739;DHT22;20063;51.730;11.110;2022-08-03T07:03:32;25.30;65.40
33739;DHT22;20063;51.730;11.110;2022-08-03T07:05:57;25.40;64.50
33739;DHT22;20063;51.730;11.110;2022-08-03T07:08:23;25.50;65.80
33739;DHT22;20063;51.730;11.110;2022-08-03T07:11:07;25.50;65.60
33739;DHT22;20063;51.730;11.110;2022-08-03T07:13:33;25.60;66.90
33739;DHT22;20063;51.730;11.110;2022-08-03T07:15:58;25.60;67.30
33739;DHT22;20063;51.730;11.110;2022-08-03T07:18:24;25.70;66.90
33739;DHT22;20063;51.730;11.110;2022-08-03T07:20:49;25.70;65.70
33739;DHT22;20063;51.730;11.110;2022-08-03T07:23:37;25.80;65.50
33739;DHT22;20063;51.730;11.110;2022-08-03T07:26:03;25.90;65.70
33739;DHT22;20063;51.730;11.110;2022-08-03T07:28:49;26.00;62.90
33739;DHT22;20063;51.730;11.110;2022-08-03T07:31:14;26.00;62.70
33739;DHT22;20063;51.730;11.110;2022-08-03T07:33:40;26.00;62.00
33739;DHT22;20063;51.730;11.110;2022-08-03T07:36:07;26.10;63.30
33739;DHT22;20063;51.730;11.110;2022-08-03T07:38:34;26.10;62.30
33739;DHT22;20063;51.730;11.110;2022-08-03T07:41:12;26.10;62.70
33739;DHT22;20063;51.730;11.110;2022-08-03T07:43:37;26.10;62.80
33739;DHT22;20063;51.730;11.110;2022-08-03T07:46:03;26.20;61.10
33739;DHT22;20063;51.730;11.110;2022-08-03T07:48:29;26.30;60.80
33739;DHT22;20063;51.730;11.110;2022-08-03T07:50:57;26.30;59.70
33739;DHT22;20063;51.730;11.110;2022-08-03T07:53:23;26.40;59.60
33739;DHT22;20063;51.730;11.110;2022-08-03T07:55:50;26.40;59.60
33739;DHT22;20063;51.730;11.110;2022-08-03T07:58:15;26.50;58.40
33739;DHT22;20063;51.730;11.110;2022-08-03T08:00:42;26.40;58.20
33739;DHT22;20063;51.730;11.110;2022-08-03T08:03:18;26.50;58.80
33739;DHT22;20063;51.730;11.110;2022-08-03T08:05:47;26.50;57.90
33739;DHT22;20063;51.730;11.110;2022-08-03T08:08:14;26.50;58.20
33739;DHT22;20063;51.730;11.110;2022-08-03T08:10:39;26.50;58.80
33739;DHT22;20063;51.730;11.110;2022-08-03T08:13:05;26.60;57.20
33739;DHT22;20063;51.730;11.110;2022-08-03T08:16:00;26.60;57.20
33739;DHT22;20063;51.730;11.110;2022-08-03T08:18:25;26.70;55.90
33739;DHT22;20063;51.730;11.110;2022-08-03T08:20:54;26.80;55.70
33739;DHT22;20063;51.730;11.110;2022-08-03T08:23:38;26.80;56.10
33739;DHT22;20063;51.730;11.110;2022-08-03T08:26:03;26.80;55.40
33739;DHT22;20063;51.730;11.110;2022-08-03T08:28:29;26.80;55.30
33739;DHT22;20063;51.730;11.110;2022-08-03T08:31:15;26.90;56.10
33739;DHT22;20063;51.730;11.110;2022-08-03T08:33:40;27.00;55.30
33739;DHT22;20063;51.730;11.110;2022-08-03T08:36:06;27.00;54.10
33739;DHT22;20063;51.730;11.110;2022-08-03T08:38:54;27.10;53.70
33739;DHT22;20063;51.730;11.110;2022-08-03T08:41:20;27.10;53.80
33739;DHT22;20063;51.730;11.110;2022-08-03T08:43:45;27.20;54.20
33739;DHT22;20063;51.730;11.110;2022-08-03T08:49:35;27.40;53.00
33739;DHT22;20063;51.730;11.110;2022-08-03T08:52:31;27.40;53.60
33739;DHT22;20063;51.730;11.110;2022-08-03T08:54:59;27.40;53.50
33739;DHT22;20063;51.730;11.110;2022-08-03T08:57:29;27.50;54.10
33739;DHT22;20063;51.730;11.110;2022-08-03T09:00:00;27.60;53.00
33739;DHT22;20063;51.730;11.110;2022-08-03T09:02:28;27.60;53.10
33739;DHT22;20063;51.730;11.110;2022-08-03T09:05:10;27.70;51.80
33739;DHT22;20063;51.730;11.110;2022-08-03T09:07:38;27.80;50.40
33739;DHT22;20063;51.730;11.110;2022-08-03T09:10:26;27.80;51.50
33739;DHT22;20063;51.730;11.110;2022-08-03T09:12:52;27.90;51.10
33739;DHT22;20063;51.730;11.110;2022-08-03T09:15:22;27.80;51.40
33739;DHT22;20063;51.730;11.110;2022-08-03T09:17:48;27.90;52.30
33739;DHT22;20063;51.730;11.110;2022-08-03T09:20:14;27.90;51.60
33739;DHT22;20063;51.730;11.110;2022-08-03T09:28:04;28.10;50.30
33739;DHT22;20063;51.730;11.110;2022-08-03T09:30:30;28.10;50.30
33739;DHT22;20063;51.730;11.110;2022-08-03T09:33:14;28.10;50.20
33739;DHT22;20063;51.730;11.110;2022-08-03T09:35:47;28.20;49.50
33739;DHT22;20063;51.730;11.110;2022-08-03T09:38:32;28.20;48.70
33739;DHT22;20063;51.730;11.110;2022-08-03T09:40:58;28.30;48.80
33739;DHT22;20063;51.730;11.110;2022-08-03T09:43:28;28.30;49.20
33739;DHT22;20063;51.730;11.110;2022-08-03T09:46:09;28.40;48.50
33739;DHT22;20063;51.730;11.110;2022-08-03T09:48:35;28.40;48.20
33739;DHT22;20063;51.730;11.110;2022-08-03T09:51:04;28.40;48.50
33739;DHT22;20063;51.730;11.110;2022-08-03T09:53:29;28.30;48.80
33739;DHT22;20063;51.730;11.110;2022-08-03T09:55:56;28.40;48.90
33739;DHT22;20063;51.730;11.110;2022-08-03T09:58:27;28.40;48.30
33739;DHT22;20063;51.730;11.110;2022-08-03T10:00:55;28.50;48.50
33739;DHT22;20063;51.730;11.110;2022-08-03T10:03:22;28.40;48.40
33739;DHT22;20063;51.730;11.110;2022-08-03T10:05:49;28.40;49.60
33739;DHT22;20063;51.730;11.110;2022-08-03T10:08:17;28.40;49.30
33739;DHT22;20063;51.730;11.110;2022-08-03T10:10:44;28.50;47.90
33739;DHT22;20063;51.730;11.110;2022-08-03T10:13:26;28.60;48.50
33739;DHT22;20063;51.730;11.110;2022-08-03T10:15:51;28.60;48.20
33739;DHT22;20063;51.730;11.110;2022-08-03T10:18:17;28.70;48.90
33739;DHT22;20063;51.730;11.110;2022-08-03T10:21:15;28.70;48.90
33739;DHT22;20063;51.730;11.110;2022-08-03T10:23:41;28.80;48.30
33739;DHT22;20063;51.730;11.110;2022-08-03T10:26:10;29.00;47.90
33739;DHT22;20063;51.730;11.110;2022-08-03T10:28:40;29.00;47.10
33739;DHT22;20063;51.730;11.110;2022-08-03T10:34:23;28.90;47.30
33739;DHT22;20063;51.730;11.110;2022-08-03T10:36:55;29.00;46.10
33739;DHT22;20063;51.730;11.110;2022-08-03T10:39:23;28.90;46.80
33739;DHT22;20063;51.730;11.110;2022-08-03T10:42:05;28.80;47.60
33739;DHT22;20063;51.730;11.110;2022-08-03T10:44:38;28.80;48.40
33739;DHT22;20063;51.730;11.110;2022-08-03T10:47:04;28.90;47.90
33739;DHT22;20063;51.730;11.110;2022-08-03T10:49:31;28.90;47.70
33739;DHT22;20063;51.730;11.110;2022-08-03T10:52:25;29.00;47.60
33739;DHT22;20063;51.730;11.110;2022-08-03T10:54:51;29.20;47.00
33739;DHT22;20063;51.730;11.110;2022-08-03T11:00:55;29.50;45.80
33739;DHT22;20063;51.730;11.110;2022-08-03T11:03:20;29.60;45.20
33739;DHT22;20063;51.730;11.110;2022-08-03T11:05:48;29.60;44.30
33739;DHT22;20063;51.730;11.110;2022-08-03T11:08:31;29.60;44.80
33739;DHT22;20063;51.730;11.110;2022-08-03T11:14:22;29.70;45.00
33739;DHT22;20063;51.730;11.110;2022-08-03T11:16:50;29.70;44.80
33739;DHT22;20063;51.730;11.110;2022-08-03T11:22:09;29.70;45.20
33739;DHT22;20063;51.730;11.110;2022-08-03T11:27:26;30.00;45.70
33739;DHT22;20063;51.730;11.110;2022-08-03T11:30:03;30.10;45.50
33739;DHT22;20063;51.730;11.110;2022-08-03T11:32:52;30.20;45.10
33739;DHT22;20063;51.730;11.110;2022-08-03T11:35:34;30.20;44.00
33739;DHT22;20063;51.730;11.110;2022-08-03T11:40:49;30.20;42.80
33739;DHT22;20063;51.730;11.110;2022-08-03T11:46:07;30.20;43.50
33739;DHT22;20063;51.730;11.110;2022-08-03T11:48:33;30.30;44.80
33739;DHT22;20063;51.730;11.110;2022-08-03T11:51:03;30.40;43.20
33739;DHT22;20063;51.730;11.110;2022-08-03T11:53:29;30.50;44.50
33739;DHT22;20063;51.730;11.110;2022-08-03T11:55:58;30.50;43.80
33739;DHT22;20063;51.730;11.110;2022-08-03T11:58:27;30.50;43.30
33739;DHT22;20063;51.730;11.110;2022-08-03T12:01:10;30.50;43.00
33739;DHT22;20063;51.730;11.110;2022-08-03T12:03:36;30.50;43.70
33739;DHT22;20063;51.730;11.110;2022-08-03T12:06:08;30.60;43.70
33739;DHT22;20063;51.730;11.110;2022-08-03T12:08:34;30.60;42.40
33739;DHT22;20063;51.730;11.110;2022-08-03T12:11:02;30.70;42.40
33739;DHT22;20063;51.730;11.110;2022-08-03T12:13:42;30.70;43.20
33739;DHT22;20063;51.730;11.110;2022-08-03T12:16:09;30.90;42.40
33739;DHT22;20063;51.730;11.110;2022-08-03T12:18:35;30.90;42.80
33739;DHT22;20063;51.730;11.110;2022-08-03T12:21:07;31.00;42.20
33739;DHT22;20063;51.730;11.110;2022-08-03T12:23:34;30.90;42.10
33739;DHT22;20063;51.730;11.110;2022-08-03T12:26:07;30.70;42.50
33739;DHT22;20063;51.730;11.110;2022-08-03T12:28:34;30.60;43.30
33739;DHT22;20063;51.730;11.110;2022-08-03T12:31:05;30.50;43.10
33739;DHT22;20063;51.730;11.110;2022-08-03T12:33:52;30.40;43.60
33739;DHT22;20063;51.730;11.110;2022-08-03T12:36:18;30.50;44.40
33739;DHT22;20063;51.730;11.110;2022-08-03T12:38:54;30.60;42.90
33739;DHT22;20063;51.730;11.110;2022-08-03T12:41:33;30.60;43.30
33739;DHT22;20063;51.730;11.110;2022-08-03T12:44:00;30.70;42.90
33739;DHT22;20063;51.730;11.110;2022-08-03T12:46:35;30.80;42.40
33739;DHT22;20063;51.730;11.110;2022-08-03T12:54:29;31.10;42.40
33739;DHT22;20063;51.730;11.110;2022-08-03T12:57:01;31.20;41.80
33739;DHT22;20063;51.730;11.110;2022-08-03T12:59:32;31.40;40.20
33739;DHT22;20063;51.730;11.110;2022-08-03T13:02:18;31.40;40.90
33739;DHT22;20063;51.730;11.110;2022-08-03T13:04:44;31.30;41.60
33739;DHT22;20063;51.730;11.110;2022-08-03T13:07:11;31.20;42.20
33739;DHT22;20063;51.730;11.110;2022-08-03T13:12:31;31.00;41.90
33739;DHT22;20063;51.730;11.110;2022-08-03T13:14:58;31.00;43.80
33739;DHT22;20063;51.730;11.110;2022-08-03T13:17:24;31.00;42.80
33739;DHT22;20063;51.730;11.110;2022-08-03T13:19:53;31.10;42.30
33739;DHT22;20063;51.730;11.110;2022-08-03T13:22:29;31.20;41.20
33739;DHT22;20063;51.730;11.110;2022-08-03T13:24:57;31.50;40.30
33739;DHT22;20063;51.730;11.110;2022-08-03T13:27:34;31.70;40.60
33739;DHT22;20063;51.730;11.110;2022-08-03T13:30:00;31.80;40.60
33739;DHT22;20063;51.730;11.110;2022-08-03T13:32:29;31.70;39.70
33739;DHT22;20063;51.730;11.110;2022-08-03T13:34:55;31.80;39.90
33739;DHT22;20063;51.730;11.110;2022-08-03T13:37:28;31.70;39.20
33739;DHT22;20063;51.730;11.110;2022-08-03T13:39:54;31.70;39.50
33739;DHT22;20063;51.730;11.110;2022-08-03T13:42:38;31.70;40.10
33739;DHT22;20063;51.730;11.110;2022-08-03T13:45:04;31.70;40.60
33739;DHT22;20063;51.730;11.110;2022-08-03T13:47:35;31.90;39.70
33739;DHT22;20063;51.730;11.110;2022-08-03T13:50:03;31.90;40.40
33739;DHT22;20063;51.730;11.110;2022-08-03T13:52:45;31.90;40.10
33739;DHT22;20063;51.730;11.110;2022-08-03T13:55:11;31.90;40.10
33739;DHT22;20063;51.730;11.110;2022-08-03T13:57:39;31.80;40.60
33739;DHT22;20063;51.730;11.110;2022-08-03T14:00:06;31.80;40.30
33739;DHT22;20063;51.730;11.110;2022-08-03T14:02:42;31.70;39.80
33739;DHT22;20063;51.730;11.110;2022-08-03T14:05:08;31.90;39.90
33739;DHT22;20063;51.730;11.110;2022-08-03T14:07:36;32.00;40.40
33739;DHT22;20063;51.730;11.110;2022-08-03T14:10:01;32.20;40.10
33739;DHT22;20063;51.730;11.110;2022-08-03T14:12:27;32.10;39.90
33739;DHT22;20063;51.730;11.110;2022-08-03T14:14:53;32.10;39.70
33739;DHT22;20063;51.730;11.110;2022-08-03T14:17:19;32.10;39.30
33739;DHT22;20063;51.730;11.110;2022-08-03T14:19:45;32.00;39.90
33739;DHT22;20063;51.730;11.110;2022-08-03T14:22:11;32.20;38.60
33739;DHT22;20063;51.730;11.110;2022-08-03T14:24:36;32.40;38.60
33739;DHT22;20063;51.730;11.110;2022-08-03T14:27:07;32.50;38.10
33739;DHT22;20063;51.730;11.110;2022-08-03T14:29:32;32.50;38.30
33739;DHT22;20063;51.730;11.110;2022-08-03T14:31:58;32.60;39.00
33739;DHT22;20063;51.730;11.110;2022-08-03T14:34:23;32.60;38.10
33739;DHT22;20063;51.730;11.110;2022-08-03T14:36:49;32.50;38.40
33739;DHT22;20063;51.730;11.110;2022-08-03T14:39:14;32.50;38.10
33739;DHT22;20063;51.730;11.110;2022-08-03T14:44:51;32.40;38.50
33739;DHT22;20063;51.730;11.110;2022-08-03T14:50:39;32.50;38.30
33739;DHT22;20063;51.730;11.110;2022-08-03T14:53:07;32.40;38.80
33739;DHT22;20063;51.730;11.110;2022-08-03T14:55:32;32.40;38.30
33739;DHT22;20063;51.730;11.110;2022-08-03T14:57:58;32.50;37.90
33739;DHT22;20063;51.730;11.110;2022-08-03T15:00:41;32.60;38.20
33739;DHT22;20063;51.730;11.110;2022-08-03T15:03:07;32.70;38.20
33739;DHT22;20063;51.730;11.110;2022-08-03T15:05:32;32.70;38.50
33739;DHT22;20063;51.730;11.110;2022-08-03T15:08:03;32.80;38.30
33739;DHT22;20063;51.730;11.110;2022-08-03T15:10:29;32.90;37.10
33739;DHT22;20063;51.730;11.110;2022-08-03T15:12:55;32.80;36.90
33739;DHT22;20063;51.730;11.110;2022-08-03T15:15:40;32.70;38.30
33739;DHT22;20063;51.730;11.110;2022-08-03T15:18:06;32.80;37.50
33739;DHT22;20063;51.730;11.110;2022-08-03T15:20:38;32.70;37.80
33739;DHT22;20063;51.730;11.110;2022-08-03T15:23:04;32.70;36.80
33739;DHT22;20063;51.730;11.110;2022-08-03T15:25:29;32.70;37.60
33739;DHT22;20063;51.730;11.110;2022-08-03T15:28:01;32.60;36.50
33739;DHT22;20063;51.730;11.110;2022-08-03T15:30:27;32.60;37.80
33739;DHT22;20063;51.730;11.110;2022-08-03T15:32:52;32.60;37.60
33739;DHT22;20063;51.730;11.110;2022-08-03T15:35:19;32.60;37.60
33739;DHT22;20063;51.730;11.110;2022-08-03T15:37:45;32.70;36.70
33739;DHT22;20063;51.730;11.110;2022-08-03T15:40:11;32.70;37.30
33739;DHT22;20063;51.730;11.110;2022-08-03T15:42:37;32.70;38.00
33739;DHT22;20063;51.730;11.110;2022-08-03T15:45:03;32.60;37.40
33739;DHT22;20063;51.730;11.110;2022-08-03T15:47:29;32.60;37.30
33739;DHT22;20063;51.730;11.110;2022-08-03T15:53:16;32.60;37.30
33739;DHT22;20063;51.730;11.110;2022-08-03T15:55:50;32.60;37.00
33739;DHT22;20063;51.730;11.110;2022-08-03T15:58:15;32.50;36.70
33739;DHT22;20063;51.730;11.110;2022-08-03T16:00:43;32.60;37.30
33739;DHT22;20063;51.730;11.110;2022-08-03T16:03:09;32.60;36.40
33739;DHT22;20063;51.730;11.110;2022-08-03T16:06:02;32.60;36.80
33739;DHT22;20063;51.730;11.110;2022-08-03T16:08:28;32.70;36.70
33739;DHT22;20063;51.730;11.110;2022-08-03T16:10:56;32.70;36.00
33739;DHT22;20063;51.730;11.110;2022-08-03T16:13:22;32.70;35.70
33739;DHT22;20063;51.730;11.110;2022-08-03T16:15:55;32.70;36.00
33739;DHT22;20063;51.730;11.110;2022-08-03T16:18:20;32.60;36.40
33739;DHT22;20063;51.730;11.110;2022-08-03T16:20:46;32.60;36.20
33739;DHT22;20063;51.730;11.110;2022-08-03T16:23:24;32.60;37.30
33739;DHT22;20063;51.730;11.110;2022-08-03T16:25:51;32.50;36.60
33739;DHT22;20063;51.730;11.110;2022-08-03T16:28:16;32.50;36.50
33739;DHT22;20063;51.730;11.110;2022-08-03T16:30:43;32.60;36.80
33739;DHT22;20063;51.730;11.110;2022-08-03T16:33:34;32.70;36.10
33739;DHT22;20063;51.730;11.110;2022-08-03T16:36:00;32.70;35.80
33739;DHT22;20063;51.730;11.110;2022-08-03T16:38:46;32.70;36.00
33739;DHT22;20063;51.730;11.110;2022-08-03T16:41:12;32.60;36.60
33739;DHT22;20063;51.730;11.110;2022-08-03T16:43:44;32.50;36.40
33739;DHT22;20063;51.730;11.110;2022-08-03T16:46:10;32.30;37.20
33739;DHT22;20063;51.730;11.110;2022-08-03T16:49:10;32.20;38.50
33739;DHT22;20063;51.730;11.110;2022-08-03T16:51:36;32.10;37.30
33739;DHT22;20063;51.730;11.110;2022-08-03T16:54:14;32.00;38.00
33739;DHT22;20063;51.730;11.110;2022-08-03T16:56:40;31.80;37.90
33739;DHT22;20063;51.730;11.110;2022-08-03T16:59:43;31.80;38.70
33739;DHT22;20063;51.730;11.110;2022-08-03T17:02:18;31.70;39.30
33739;DHT22;20063;51.730;11.110;2022-08-03T17:04:45;31.70;39.60
33739;DHT22;20063;51.730;11.110;2022-08-03T17:07:18;31.60;39.60
33739;DHT22;20063;51.730;11.110;2022-08-03T17:09:45;31.60;39.10
33739;DHT22;20063;51.730;11.110;2022-08-03T17:12:31;31.60;39.10
33739;DHT22;20063;51.730;11.110;2022-08-03T17:14:56;31.50;39.00
33739;DHT22;20063;51.730;11.110;2022-08-03T17:17:30;31.50;39.20
33739;DHT22;20063;51.730;11.110;2022-08-03T17:20:00;31.50;39.50
33739;DHT22;20063;51.730;11.110;2022-08-03T17:22:32;31.50;38.70
33739;DHT22;20063;51.730;11.110;2022-08-03T17:25:04;31.40;38.60
33739;DHT22;20063;51.730;11.110;2022-08-03T17:30:44;31.40;38.90
33739;DHT22;20063;51.730;11.110;2022-08-03T17:33:28;31.30;38.80
33739;DHT22;20063;51.730;11.110;2022-08-03T17:35:57;31.30;39.10
33739;DHT22;20063;51.730;11.110;2022-08-03T17:38:23;31.20;40.20
33739;DHT22;20063;51.730;11.110;2022-08-03T17:40:49;31.10;40.30
33739;DHT22;20063;51.730;11.110;2022-08-03T17:43:16;31.00;41.20
33739;DHT22;20063;51.730;11.110;2022-08-03T17:45:41;30.90;42.70
33739;DHT22;20063;51.730;11.110;2022-08-03T17:48:07;30.80;42.80
33739;DHT22;20063;51.730;11.110;2022-08-03T17:50:51;30.80;44.50
33739;DHT22;20063;51.730;11.110;2022-08-03T17:53:23;30.50;45.60
33739;DHT22;20063;51.730;11.110;2022-08-03T17:58:47;30.30;44.40
33739;DHT22;20063;51.730;11.110;2022-08-03T18:01:24;30.20;44.90
33739;DHT22;20063;51.730;11.110;2022-08-03T18:04:10;30.00;46.60
33739;DHT22;20063;51.730;11.110;2022-08-03T18:06:50;29.90;46.90
33739;DHT22;20063;51.730;11.110;2022-08-03T18:09:18;29.80;47.40
33739;DHT22;20063;51.730;11.110;2022-08-03T18:11:50;29.70;48.30
33739;DHT22;20063;51.730;11.110;2022-08-03T18:14:43;29.50;49.30
33739;DHT22;20063;51.730;11.110;2022-08-03T18:17:26;29.30;49.70
33739;DHT22;20063;51.730;11.110;2022-08-03T18:19:52;29.10;50.50
33739;DHT22;20063;51.730;11.110;2022-08-03T18:22:33;29.00;50.50
33739;DHT22;20063;51.730;11.110;2022-08-03T18:24:59;28.80;50.80
33739;DHT22;20063;51.730;11.110;2022-08-03T18:27:25;28.70;51.50
33739;DHT22;20063;51.730;11.110;2022-08-03T18:29:52;28.50;51.60
33739;DHT22;20063;51.730;11.110;2022-08-03T18:32:19;28.40;51.20
33739;DHT22;20063;51.730;11.110;2022-08-03T18:34:49;28.20;52.10
33739;DHT22;20063;51.730;11.110;2022-08-03T18:37:16;28.10;51.50
33739;DHT22;20063;51.730;11.110;2022-08-03T18:39:44;28.00;51.20
33739;DHT22;20063;51.730;11.110;2022-08-03T18:42:25;27.90;50.70
33739;DHT22;20063;51.730;11.110;2022-08-03T18:44:51;27.80;50.50
33739;DHT22;20063;51.730;11.110;2022-08-03T18:50:33;27.60;51.60
33739;DHT22;20063;51.730;11.110;2022-08-03T18:53:17;27.50;53.20
33739;DHT22;20063;51.730;11.110;2022-08-03T18:55:55;27.30;52.20
33739;DHT22;20063;51.730;11.110;2022-08-03T18:58:46;27.20;52.10
33739;DHT22;20063;51.730;11.110;2022-08-03T19:01:39;27.20;51.50
33739;DHT22;20063;51.730;11.110;2022-08-03T19:07:04;27.10;53.10
33739;DHT22;20063;51.730;11.110;2022-08-03T19:09:40;27.00;53.60
33739;DHT22;20063;51.730;11.110;2022-08-03T19:12:25;26.90;54.60
33739;DHT22;20063;51.730;11.110;2022-08-03T19:14:59;26.80;55.10
33739;DHT22;20063;51.730;11.110;2022-08-03T19:17:47;26.60;56.60
33739;DHT22;20063;51.730;11.110;2022-08-03T19:20:17;26.50;56.50
33739;DHT22;20063;51.730;11.110;2022-08-03T19:22:54;26.40;56.80
33739;DHT22;20063;51.730;11.110;2022-08-03T19:25:21;26.20;57.90
33739;DHT22;20063;51.730;11.110;2022-08-03T19:30:57;26.00;59.90
33739;DHT22;20063;51.730;11.110;2022-08-03T19:36:40;25.90;64.00
33739;DHT22;20063;51.730;11.110;2022-08-03T19:39:32;25.80;66.20
33739;DHT22;20063;51.730;11.110;2022-08-03T19:42:23;25.70;67.40
33739;DHT22;20063;51.730;11.110;2022-08-03T19:45:34;25.70;69.00
33739;DHT22;20063;51.730;11.110;2022-08-03T19:48:07;25.60;73.20
33739;DHT22;20063;51.730;11.110;2022-08-03T19:50:36;25.50;76.80
33739;DHT22;20063;51.730;11.110;2022-08-03T19:53:12;25.40;81.90
33739;DHT22;20063;51.730;11.110;2022-08-03T19:55:40;25.30;85.30
33739;DHT22;20063;51.730;11.110;2022-08-03T19:58:09;25.20;88.20
33739;DHT22;20063;51.730;11.110;2022-08-03T20:00:50;25.10;90.20
33739;DHT22;20063;51.730;11.110;2022-08-03T20:03:16;25.00;91.50
33739;DHT22;20063;51.730;11.110;2022-08-03T20:09:14;24.90;91.40
33739;DHT22;20063;51.730;11.110;2022-08-03T20:11:40;24.80;92.80
33739;DHT22;20063;51.730;11.110;2022-08-03T20:14:12;24.70;94.30
33739;DHT22;20063;51.730;11.110;2022-08-03T20:16:42;24.70;95.40
33739;DHT22;20063;51.730;11.110;2022-08-03T20:19:07;24.70;95.10
33739;DHT22;20063;51.730;11.110;2022-08-03T20:21:36;24.60;95.80
33739;DHT22;20063;51.730;11.110;2022-08-03T20:27:29;24.50;96.90
33739;DHT22;20063;51.730;11.110;2022-08-03T20:30:01;24.50;98.00
33739;DHT22;20063;51.730;11.110;2022-08-03T20:32:30;24.40;99.80
33739;DHT22;20063;51.730;11.110;2022-08-03T20:34:56;24.30;99.90
33739;DHT22;20063;51.730;11.110;2022-08-03T20:37:22;24.20;99.90
33739;DHT22;20063;51.730;11.110;2022-08-03T20:40:05;24.20;99.90
33739;DHT22;20063;51.730;11.110;2022-08-03T20:42:30;24.20;99.90
33739;DHT22;20063;51.730;11.110;2022-08-03T20:44:56;24.20;99.90
33739;DHT22;20063;51.730;11.110;2022-08-03T20:51:20;24.00;99.90
33739;DHT22;20063;51.730;11.110;2022-08-03T20:53:48;23.90;99.90
33739;DHT22;20063;51.730;11.110;2022-08-03T20:56:48;23.80;99.90
33739;DHT22;20063;51.730;11.110;2022-08-03T20:59:14;23.80;99.90
33739;DHT22;20063;51.730;11.110;2022-08-03T21:01:40;23.80;99.90
33739;DHT22;20063;51.730;11.110;2022-08-03T21:04:18;23.80;99.90
33739;DHT22;20063;51.730;11.110;2022-08-03T21:09:59;23.70;99.90
33739;DHT22;20063;51.730;11.110;2022-08-03T21:15:15;23.60;99.90
33739;DHT22;20063;51.730;11.110;2022-08-03T21:18:03;23.50;99.90
33739;DHT22;20063;51.730;11.110;2022-08-03T21:20:32;23.50;99.90
33739;DHT22;20063;51.730;11.110;2022-08-03T21:23:02;23.40;99.90
33739;DHT22;20063;51.730;11.110;2022-08-03T21:25:32;23.40;99.90
33739;DHT22;20063;51.730;11.110;2022-08-03T21:31:01;23.30;99.90
33739;DHT22;20063;51.730;11.110;2022-08-03T21:33:27;23.20;99.90
33739;DHT22;20063;51.730;11.110;2022-08-03T21:36:06;23.10;99.90
33739;DHT22;20063;51.730;11.110;2022-08-03T21:38:31;23.10;99.90
33739;DHT22;20063;51.730;11.110;2022-08-03T21:41:01;23.10;99.90
33739;DHT22;20063;51.730;11.110;2022-08-03T21:43:32;23.00;99.90
33739;DHT22;20063;51.730;11.110;2022-08-03T21:45:59;23.00;99.90
33739;DHT22;20063;51.730;11.110;2022-08-03T21:48:27;23.10;99.90
33739;DHT22;20063;51.730;11.110;2022-08-03T21:51:14;22.90;99.90
33739;DHT22;20063;51.730;11.110;2022-08-03T21:53:42;23.00;99.90
33739;DHT22;20063;51.730;11.110;2022-08-03T21:56:12;22.90;99.90
33739;DHT22;20063;51.730;11.110;2022-08-03T21:58:56;22.90;99.90
33739;DHT22;20063;51.730;11.110;2022-08-03T22:01:28;22.90;99.90
33739;DHT22;20063;51.730;11.110;2022-08-03T22:04:21;22.80;99.90
33739;DHT22;20063;51.730;11.110;2022-08-03T22:06:49;22.80;99.90
33739;DHT22;20063;51.730;11.110;2022-08-03T22:09:37;22.80;99.90
33739;DHT22;20063;51.730;11.110;2022-08-03T22:12:03;22.70;99.90
33739;DHT22;20063;51.730;11.110;2022-08-03T22:14:33;22.60;99.90
33739;DHT22;20063;51.730;11.110;2022-08-03T22:17:05;22.60;99.90
33739;DHT22;20063;51.730;11.110;2022-08-03T22:19:34;22.50;99.90
33739;DHT22;20063;51.730;11.110;2022-08-03T22:22:08;22.50;99.90
33739;DHT22;20063;51.730;11.110;2022-08-03T22:24:38;22.60;99.90
33739;DHT22;20063;51.730;11.110;2022-08-03T22:27:16;22.60;99.90
33739;DHT22;20063;51.730;11.110;2022-08-03T22:29:58;22.60;99.90
33739;DHT22;20063;51.730;11.110;2022-08-03T22:32:26;22.60;99.90
33739;DHT22;20063;51.730;11.110;2022-08-03T22:34:52;22.60;99.90
33739;DHT22;20063;51.730;11.110;2022-08-03T22:37:57;22.60;99.90
33739;DHT22;20063;51.730;11.110;2022-08-03T22:40:22;22.60;99.90
33739;DHT22;20063;51.730;11.110;2022-08-03T22:42:49;22.50;99.90
33739;DHT22;20063;51.730;11.110;2022-08-03T22:45:30;22.50;99.90
33739;DHT22;20063;51.730;11.110;2022-08-03T22:47:59;22.40;99.90
33739;DHT22;20063;51.730;11.110;2022-08-03T22:50:32;22.40;99.90
33739;DHT22;20063;51.730;11.110;2022-08-03T22:52:58;22.40;99.90
33739;DHT22;20063;51.730;11.110;2022-08-03T22:55:26;22.30;99.90
33739;DHT22;20063;51.730;11.110;2022-08-03T22:58:25;22.30;99.90
33739;DHT22;20063;51.730;11.110;2022-08-03T23:00:54;22.30;99.90
33739;DHT22;20063;51.730;11.110;2022-08-03T23:03:24;22.20;99.90
33739;DHT22;20063;51.730;11.110;2022-08-03T23:05:53;22.20;99.90
33739;DHT22;20063;51.730;11.110;2022-08-03T23:08:24;22.20;99.90
33739;DHT22;20063;51.730;11.110;2022-08-03T23:11:05;22.20;99.90
33739;DHT22;20063;51.730;11.110;2022-08-03T23:13:33;22.20;99.90
33739;DHT22;20063;51.730;11.110;2022-08-03T23:16:04;22.20;99.90
33739;DHT22;20063;51.730;11.110;2022-08-03T23:18:35;22.20;99.90
33739;DHT22;20063;51.730;11.110;2022-08-03T23:21:08;22.20;99.90
33739;DHT22;20063;51.730;11.110;2022-08-03T23:23:35;22.20;99.90
33739;DHT22;20063;51.730;11.110;2022-08-03T23:26:16;22.30;99.90
33739;DHT22;20063;51.730;11.110;2022-08-03T23:28:48;22.30;99.90
33739;DHT22;20063;51.730;11.110;2022-08-03T23:31:14;22.40;99.90